sensor_id;sensor_type;location;lat;lon;timestamp;temperature;humidity
12268;DHT22;6196;48.398;11.736;2023-01-23T00:01:21;-2.90;99.90
12268;DHT22;6196;48.398;11.736;2023-01-23T00:03:52;-2.90;99.90
12268;DHT22;6196;48.398;11.736;2023-01-23T00:06:20;-3.10;99.90
12268;DHT22;6196;48.398;11.736;2023-01-23T00:08:47;-3.10;99.90
12268;DHT22;6196;48.398;11.736;2023-01-23T00:11:17;-3.20;99.90
12268;DHT22;6196;48.398;11.736;2023-01-23T00:13:46;-3.30;99.90
12268;DHT22;6196;48.398;11.736;2023-01-23T00:16:15;-3.30;99.90
12268;DHT22;6196;48.398;11.736;2023-01-23T00:18:44;-3.40;99.90
12268;DHT22;6196;48.398;11.736;2023-01-23T00:21:14;-3.50;99.90
12268;DHT22;6196;48.398;11.736;2023-01-23T00:23:44;-3.60;99.90
12268;DHT22;6196;48.398;11.736;2023-01-23T00:26:15;-3.70;99.90
12268;DHT22;6196;48.398;11.736;2023-01-23T00:28:44;-3.70;99.90
12268;DHT22;6196;48.398;11.736;2023-01-23T00:31:26;-3.70;99.90
12268;DHT22;6196;48.398;11.736;2023-01-23T00:33:58;-3.70;99.90
12268;DHT22;6196;48.398;11.736;2023-01-23T00:36:29;-3.70;99.90
12268;DHT22;6196;48.398;11.736;2023-01-23T00:38:58;-3.80;99.90
12268;DHT22;6196;48.398;11.736;2023-01-23T00:41:25;-3.80;99.90
12268;DHT22;6196;48.398;11.736;2023-01-23T00:43:53;-3.80;99.90
12268;DHT22;6196;48.398;11.736;2023-01-23T00:46:20;-3.80;99.90
12268;DHT22;6196;48.398;11.736;2023-01-23T00:48:48;-3.70;99.90
12268;DHT22;6196;48.398;11.736;2023-01-23T00:51:16;-3.70;99.90
12268;DHT22;6196;48.398;11.736;2023-01-23T00:53:43;-3.60;99.90
12268;DHT22;6196;48.398;11.736;2023-01-23T00:56:10;-3.40;99.90
12268;DHT22;6196;48.398;11.736;2023-01-23T00:58:37;-3.30;99.90
12268;DHT22;6196;48.398;11.736;2023-01-23T01:01:06;-3.20;99.90
12268;DHT22;6196;48.398;11.736;2023-01-23T01:03:33;-3.10;99.90
12268;DHT22;6196;48.398;11.736;2023-01-23T01:06:01;-2.90;99.90
12268;DHT22;6196;48.398;11.736;2023-01-23T01:08:28;-2.80;99.90
12268;DHT22;6196;48.398;11.736;2023-01-23T01:10:55;-2.70;99.90
12268;DHT22;6196;48.398;11.736;2023-01-23T01:13:25;-2.60;99.90
12268;DHT22;6196;48.398;11.736;2023-01-23T01:15:53;-2.50;99.90
12268;DHT22;6196;48.398;11.736;2023-01-23T01:18:21;-2.50;99.90
12268;DHT22;6196;48.398;11.736;2023-01-23T01:20:48;-2.40;99.90
12268;DHT22;6196;48.398;11.736;2023-01-23T01:23:17;-2.30;99.90
12268;DHT22;6196;48.398;11.736;2023-01-23T01:25:44;-2.30;99.90
12268;DHT22;6196;48.398;11.736;2023-01-23T01:28:12;-2.40;99.90
12268;DHT22;6196;48.398;11.736;2023-01-23T01:30:39;-2.40;99.90
12268;DHT22;6196;48.398;11.736;2023-01-23T01:33:06;-2.40;99.90
12268;DHT22;6196;48.398;11.736;2023-01-23T01:35:33;-2.40;99.90
12268;DHT22;6196;48.398;11.736;2023-01-23T01:38:00;-2.50;99.90
12268;DHT22;6196;48.398;11.736;2023-01-23T01:40:31;-2.70;99.90
12268;DHT22;6196;48.398;11.736;2023-01-23T01:43:02;-2.80;99.90
12268;DHT22;6196;48.398;11.736;2023-01-23T01:48:59;-2.70;99.90
12268;DHT22;6196;48.398;11.736;2023-01-23T01:57:34;-2.50;99.90
12268;DHT22;6196;48.398;11.736;2023-01-23T02:02:42;-2.30;99.90
12268;DHT22;6196;48.398;11.736;2023-01-23T02:05:16;-2.30;99.90
12268;DHT22;6196;48.398;11.736;2023-01-23T02:07:59;-2.30;99.90
12268;DHT22;6196;48.398;11.736;2023-01-23T02:10:30;-2.30;99.90
12268;DHT22;6196;48.398;11.736;2023-01-23T02:13:35;-2.30;99.90
12268;DHT22;6196;48.398;11.736;2023-01-23T02:16:13;-2.40;99.90
12268;DHT22;6196;48.398;11.736;2023-01-23T02:18:46;-2.40;99.90
12268;DHT22;6196;48.398;11.736;2023-01-23T02:21:18;-2.40;99.90
12268;DHT22;6196;48.398;11.736;2023-01-23T02:26:29;-2.50;99.90
12268;DHT22;6196;48.398;11.736;2023-01-23T02:28:58;-2.50;99.90
12268;DHT22;6196;48.398;11.736;2023-01-23T02:31:25;-2.50;99.90
12268;DHT22;6196;48.398;11.736;2023-01-23T02:33:57;-2.50;99.90
12268;DHT22;6196;48.398;11.736;2023-01-23T02:36:27;-2.60;99.90
12268;DHT22;6196;48.398;11.736;2023-01-23T02:39:15;-2.70;99.90
12268;DHT22;6196;48.398;11.736;2023-01-23T02:41:46;-2.60;99.90
12268;DHT22;6196;48.398;11.736;2023-01-23T02:44:25;-2.50;99.90
12268;DHT22;6196;48.398;11.736;2023-01-23T02:47:04;-2.50;99.90
12268;DHT22;6196;48.398;11.736;2023-01-23T02:49:38;-2.40;99.90
12268;DHT22;6196;48.398;11.736;2023-01-23T02:52:06;-2.30;99.90
12268;DHT22;6196;48.398;11.736;2023-01-23T02:54:33;-2.30;99.90
12268;DHT22;6196;48.398;11.736;2023-01-23T02:57:00;-2.30;99.90
12268;DHT22;6196;48.398;11.736;2023-01-23T02:59:27;-2.20;99.90
12268;DHT22;6196;48.398;11.736;2023-01-23T03:02:12;-2.30;99.90
12268;DHT22;6196;48.398;11.736;2023-01-23T03:04:40;-2.20;99.90
12268;DHT22;6196;48.398;11.736;2023-01-23T03:07:07;-2.20;99.90
12268;DHT22;6196;48.398;11.736;2023-01-23T03:09:34;-2.20;99.90
12268;DHT22;6196;48.398;11.736;2023-01-23T03:12:01;-2.30;99.90
12268;DHT22;6196;48.398;11.736;2023-01-23T03:14:29;-2.40;99.90
12268;DHT22;6196;48.398;11.736;2023-01-23T03:16:57;-2.40;99.90
12268;DHT22;6196;48.398;11.736;2023-01-23T03:19:25;-2.30;99.90
12268;DHT22;6196;48.398;11.736;2023-01-23T03:21:53;-2.20;99.90
12268;DHT22;6196;48.398;11.736;2023-01-23T03:24:20;-2.20;99.90
12268;DHT22;6196;48.398;11.736;2023-01-23T03:26:48;-2.30;99.90
12268;DHT22;6196;48.398;11.736;2023-01-23T03:29:18;-2.20;99.90
12268;DHT22;6196;48.398;11.736;2023-01-23T03:32:06;-2.20;99.90
12268;DHT22;6196;48.398;11.736;2023-01-23T03:34:34;-2.10;99.90
12268;DHT22;6196;48.398;11.736;2023-01-23T03:37:01;-2.10;99.90
12268;DHT22;6196;48.398;11.736;2023-01-23T03:39:28;-2.00;99.90
12268;DHT22;6196;48.398;11.736;2023-01-23T03:42:14;-2.00;99.90
12268;DHT22;6196;48.398;11.736;2023-01-23T03:44:41;-2.10;99.90
12268;DHT22;6196;48.398;11.736;2023-01-23T03:47:09;-2.10;99.90
12268;DHT22;6196;48.398;11.736;2023-01-23T03:49:36;-2.10;99.90
12268;DHT22;6196;48.398;11.736;2023-01-23T03:52:03;-2.00;99.90
12268;DHT22;6196;48.398;11.736;2023-01-23T03:54:30;-2.00;99.90
12268;DHT22;6196;48.398;11.736;2023-01-23T03:56:56;-2.00;99.90
12268;DHT22;6196;48.398;11.736;2023-01-23T03:59:23;-2.00;99.90
12268;DHT22;6196;48.398;11.736;2023-01-23T04:01:50;-1.90;99.90
12268;DHT22;6196;48.398;11.736;2023-01-23T04:04:17;-1.90;99.90
12268;DHT22;6196;48.398;11.736;2023-01-23T04:06:44;-1.90;99.90
12268;DHT22;6196;48.398;11.736;2023-01-23T04:09:11;-1.90;99.90
12268;DHT22;6196;48.398;11.736;2023-01-23T04:11:38;-1.90;99.90
12268;DHT22;6196;48.398;11.736;2023-01-23T04:14:05;-1.90;99.90
12268;DHT22;6196;48.398;11.736;2023-01-23T04:16:32;-1.90;99.90
12268;DHT22;6196;48.398;11.736;2023-01-23T04:18:59;-1.80;99.90
12268;DHT22;6196;48.398;11.736;2023-01-23T04:21:26;-1.80;99.90
12268;DHT22;6196;48.398;11.736;2023-01-23T04:23:53;-1.80;99.90
12268;DHT22;6196;48.398;11.736;2023-01-23T04:26:20;-1.70;99.90
12268;DHT22;6196;48.398;11.736;2023-01-23T04:28:46;-1.70;99.90
12268;DHT22;6196;48.398;11.736;2023-01-23T04:31:13;-1.70;99.90
12268;DHT22;6196;48.398;11.736;2023-01-23T04:33:40;-1.70;99.90
12268;DHT22;6196;48.398;11.736;2023-01-23T04:36:07;-1.70;99.90
12268;DHT22;6196;48.398;11.736;2023-01-23T04:38:35;-1.70;99.90
12268;DHT22;6196;48.398;11.736;2023-01-23T04:41:03;-1.70;99.90
12268;DHT22;6196;48.398;11.736;2023-01-23T04:43:30;-1.80;99.90
12268;DHT22;6196;48.398;11.736;2023-01-23T04:45:57;-1.80;99.90
12268;DHT22;6196;48.398;11.736;2023-01-23T04:48:24;-1.70;99.90
12268;DHT22;6196;48.398;11.736;2023-01-23T04:50:51;-1.60;99.90
12268;DHT22;6196;48.398;11.736;2023-01-23T04:53:18;-1.60;99.90
12268;DHT22;6196;48.398;11.736;2023-01-23T04:55:47;-1.60;99.90
12268;DHT22;6196;48.398;11.736;2023-01-23T04:58:16;-1.60;99.90
12268;DHT22;6196;48.398;11.736;2023-01-23T05:00:44;-1.60;99.90
12268;DHT22;6196;48.398;11.736;2023-01-23T05:03:12;-1.50;99.90
12268;DHT22;6196;48.398;11.736;2023-01-23T05:05:39;-1.50;99.90
12268;DHT22;6196;48.398;11.736;2023-01-23T05:08:08;-1.50;99.90
12268;DHT22;6196;48.398;11.736;2023-01-23T05:10:37;-1.50;99.90
12268;DHT22;6196;48.398;11.736;2023-01-23T05:13:04;-1.50;99.90
12268;DHT22;6196;48.398;11.736;2023-01-23T05:15:31;-1.40;99.90
12268;DHT22;6196;48.398;11.736;2023-01-23T05:17:58;-1.40;99.90
12268;DHT22;6196;48.398;11.736;2023-01-23T05:20:25;-1.30;99.90
12268;DHT22;6196;48.398;11.736;2023-01-23T05:22:52;-1.30;99.90
12268;DHT22;6196;48.398;11.736;2023-01-23T05:25:21;-1.30;99.90
12268;DHT22;6196;48.398;11.736;2023-01-23T05:27:48;-1.30;99.90
12268;DHT22;6196;48.398;11.736;2023-01-23T05:30:16;-1.30;99.90
12268;DHT22;6196;48.398;11.736;2023-01-23T05:32:44;-1.20;99.90
12268;DHT22;6196;48.398;11.736;2023-01-23T05:35:11;-1.20;99.90
12268;DHT22;6196;48.398;11.736;2023-01-23T05:37:38;-1.20;99.90
12268;DHT22;6196;48.398;11.736;2023-01-23T05:40:06;-1.20;99.90
12268;DHT22;6196;48.398;11.736;2023-01-23T05:42:34;-1.10;99.90
12268;DHT22;6196;48.398;11.736;2023-01-23T05:45:01;-1.10;99.90
12268;DHT22;6196;48.398;11.736;2023-01-23T05:47:28;-1.10;99.90
12268;DHT22;6196;48.398;11.736;2023-01-23T05:49:55;-1.10;99.90
12268;DHT22;6196;48.398;11.736;2023-01-23T05:52:22;-1.10;99.90
12268;DHT22;6196;48.398;11.736;2023-01-23T05:54:49;-1.10;99.90
12268;DHT22;6196;48.398;11.736;2023-01-23T05:57:16;-1.10;99.90
12268;DHT22;6196;48.398;11.736;2023-01-23T05:59:43;-1.20;99.90
12268;DHT22;6196;48.398;11.736;2023-01-23T06:02:10;-1.20;99.90
12268;DHT22;6196;48.398;11.736;2023-01-23T06:04:37;-1.20;99.90
12268;DHT22;6196;48.398;11.736;2023-01-23T06:07:04;-1.20;99.90
12268;DHT22;6196;48.398;11.736;2023-01-23T06:09:33;-1.10;99.90
12268;DHT22;6196;48.398;11.736;2023-01-23T06:12:00;-1.00;99.90
12268;DHT22;6196;48.398;11.736;2023-01-23T06:14:27;-0.90;99.90
12268;DHT22;6196;48.398;11.736;2023-01-23T06:16:54;-0.90;99.90
12268;DHT22;6196;48.398;11.736;2023-01-23T06:19:21;-0.80;99.90
12268;DHT22;6196;48.398;11.736;2023-01-23T06:21:48;-0.80;99.90
12268;DHT22;6196;48.398;11.736;2023-01-23T06:24:15;-0.80;99.90
12268;DHT22;6196;48.398;11.736;2023-01-23T06:26:41;-0.90;99.90
12268;DHT22;6196;48.398;11.736;2023-01-23T06:29:08;-0.90;99.90
12268;DHT22;6196;48.398;11.736;2023-01-23T06:31:35;-0.80;99.90
12268;DHT22;6196;48.398;11.736;2023-01-23T06:34:03;-0.80;99.90
12268;DHT22;6196;48.398;11.736;2023-01-23T06:36:30;-0.70;99.90
12268;DHT22;6196;48.398;11.736;2023-01-23T06:38:57;-0.70;99.90
12268;DHT22;6196;48.398;11.736;2023-01-23T06:41:24;-0.70;99.90
12268;DHT22;6196;48.398;11.736;2023-01-23T06:43:51;-0.70;99.90
12268;DHT22;6196;48.398;11.736;2023-01-23T06:46:20;-0.70;99.90
12268;DHT22;6196;48.398;11.736;2023-01-23T06:48:47;-0.80;99.90
12268;DHT22;6196;48.398;11.736;2023-01-23T06:51:13;-0.80;99.90
12268;DHT22;6196;48.398;11.736;2023-01-23T06:53:40;-0.80;99.90
12268;DHT22;6196;48.398;11.736;2023-01-23T06:56:07;-0.80;99.90
12268;DHT22;6196;48.398;11.736;2023-01-23T06:58:43;-0.90;99.90
12268;DHT22;6196;48.398;11.736;2023-01-23T07:01:13;-0.80;99.90
12268;DHT22;6196;48.398;11.736;2023-01-23T07:03:42;-0.70;99.90
12268;DHT22;6196;48.398;11.736;2023-01-23T07:06:11;-0.70;99.90
12268;DHT22;6196;48.398;11.736;2023-01-23T07:08:39;-0.70;99.90
12268;DHT22;6196;48.398;11.736;2023-01-23T07:11:07;-0.70;99.90
12268;DHT22;6196;48.398;11.736;2023-01-23T07:13:34;-0.60;99.90
12268;DHT22;6196;48.398;11.736;2023-01-23T07:16:01;-0.60;99.90
12268;DHT22;6196;48.398;11.736;2023-01-23T07:18:28;-0.60;99.90
12268;DHT22;6196;48.398;11.736;2023-01-23T07:20:55;-0.70;99.90
12268;DHT22;6196;48.398;11.736;2023-01-23T07:23:23;-0.60;99.90
12268;DHT22;6196;48.398;11.736;2023-01-23T07:25:49;-0.50;99.90
12268;DHT22;6196;48.398;11.736;2023-01-23T07:28:16;-0.40;99.90
12268;DHT22;6196;48.398;11.736;2023-01-23T07:30:43;-0.40;99.90
12268;DHT22;6196;48.398;11.736;2023-01-23T07:33:11;-0.40;99.90
12268;DHT22;6196;48.398;11.736;2023-01-23T07:35:39;-0.40;99.90
12268;DHT22;6196;48.398;11.736;2023-01-23T07:38:06;-0.40;99.90
12268;DHT22;6196;48.398;11.736;2023-01-23T07:40:33;-0.40;99.90
12268;DHT22;6196;48.398;11.736;2023-01-23T07:42:59;-0.30;99.90
12268;DHT22;6196;48.398;11.736;2023-01-23T07:45:26;-0.30;99.90
12268;DHT22;6196;48.398;11.736;2023-01-23T07:47:54;-0.30;99.90
12268;DHT22;6196;48.398;11.736;2023-01-23T07:50:21;-0.30;99.90
12268;DHT22;6196;48.398;11.736;2023-01-23T07:52:48;-0.30;99.90
12268;DHT22;6196;48.398;11.736;2023-01-23T07:55:15;-0.20;99.90
12268;DHT22;6196;48.398;11.736;2023-01-23T07:57:42;-0.20;99.90
12268;DHT22;6196;48.398;11.736;2023-01-23T08:00:09;-0.10;99.90
12268;DHT22;6196;48.398;11.736;2023-01-23T08:02:36;-0.10;99.90
12268;DHT22;6196;48.398;11.736;2023-01-23T08:05:04;0.00;99.90
12268;DHT22;6196;48.398;11.736;2023-01-23T08:07:31;0.10;99.90
12268;DHT22;6196;48.398;11.736;2023-01-23T08:09:58;0.20;99.90
12268;DHT22;6196;48.398;11.736;2023-01-23T08:12:25;0.00;99.90
12268;DHT22;6196;48.398;11.736;2023-01-23T08:14:52;0.10;99.90
12268;DHT22;6196;48.398;11.736;2023-01-23T08:17:19;0.10;99.90
12268;DHT22;6196;48.398;11.736;2023-01-23T08:19:46;0.30;99.90
12268;DHT22;6196;48.398;11.736;2023-01-23T08:22:14;0.20;99.90
12268;DHT22;6196;48.398;11.736;2023-01-23T08:24:41;0.20;99.90
12268;DHT22;6196;48.398;11.736;2023-01-23T08:27:08;0.20;99.90
12268;DHT22;6196;48.398;11.736;2023-01-23T08:29:35;0.20;99.90
12268;DHT22;6196;48.398;11.736;2023-01-23T08:32:02;0.30;99.90
12268;DHT22;6196;48.398;11.736;2023-01-23T08:34:29;0.30;99.90
12268;DHT22;6196;48.398;11.736;2023-01-23T08:36:55;0.40;99.90
12268;DHT22;6196;48.398;11.736;2023-01-23T08:39:22;0.50;99.90
12268;DHT22;6196;48.398;11.736;2023-01-23T08:41:50;0.50;99.90
12268;DHT22;6196;48.398;11.736;2023-01-23T08:44:17;0.60;99.90
12268;DHT22;6196;48.398;11.736;2023-01-23T08:46:45;0.60;99.90
12268;DHT22;6196;48.398;11.736;2023-01-23T08:49:12;0.50;99.90
12268;DHT22;6196;48.398;11.736;2023-01-23T08:51:39;0.60;99.90
12268;DHT22;6196;48.398;11.736;2023-01-23T08:54:06;0.70;99.90
12268;DHT22;6196;48.398;11.736;2023-01-23T08:56:32;0.80;99.90
12268;DHT22;6196;48.398;11.736;2023-01-23T08:58:59;0.80;99.90
12268;DHT22;6196;48.398;11.736;2023-01-23T09:01:27;0.80;99.90
12268;DHT22;6196;48.398;11.736;2023-01-23T09:03:54;0.90;99.90
12268;DHT22;6196;48.398;11.736;2023-01-23T09:06:22;1.10;99.90
12268;DHT22;6196;48.398;11.736;2023-01-23T09:08:49;1.10;99.90
12268;DHT22;6196;48.398;11.736;2023-01-23T09:11:16;1.20;99.90
12268;DHT22;6196;48.398;11.736;2023-01-23T09:13:45;1.30;99.90
12268;DHT22;6196;48.398;11.736;2023-01-23T09:16:12;1.40;99.90
12268;DHT22;6196;48.398;11.736;2023-01-23T09:18:39;1.50;99.90
12268;DHT22;6196;48.398;11.736;2023-01-23T09:21:11;1.60;99.90
12268;DHT22;6196;48.398;11.736;2023-01-23T09:23:39;1.70;99.90
12268;DHT22;6196;48.398;11.736;2023-01-23T09:26:09;1.80;99.90
12268;DHT22;6196;48.398;11.736;2023-01-23T09:28:38;1.80;99.90
12268;DHT22;6196;48.398;11.736;2023-01-23T09:31:10;1.90;99.90
12268;DHT22;6196;48.398;11.736;2023-01-23T09:33:39;2.00;99.90
12268;DHT22;6196;48.398;11.736;2023-01-23T09:36:07;2.00;99.90
12268;DHT22;6196;48.398;11.736;2023-01-23T09:38:35;2.10;99.90
12268;DHT22;6196;48.398;11.736;2023-01-23T09:41:28;2.10;99.90
12268;DHT22;6196;48.398;11.736;2023-01-23T09:44:02;2.20;99.90
12268;DHT22;6196;48.398;11.736;2023-01-23T09:49:27;2.40;99.90
12268;DHT22;6196;48.398;11.736;2023-01-23T09:52:03;2.30;99.90
12268;DHT22;6196;48.398;11.736;2023-01-23T09:54:57;2.40;99.90
12268;DHT22;6196;48.398;11.736;2023-01-23T09:57:34;2.40;99.90
12268;DHT22;6196;48.398;11.736;2023-01-23T10:00:09;2.40;99.90
12268;DHT22;6196;48.398;11.736;2023-01-23T10:02:43;2.50;99.90
12268;DHT22;6196;48.398;11.736;2023-01-23T10:05:16;2.70;99.90
12268;DHT22;6196;48.398;11.736;2023-01-23T10:11:22;2.60;99.90
12268;DHT22;6196;48.398;11.736;2023-01-23T10:23:10;3.00;99.90
12268;DHT22;6196;48.398;11.736;2023-01-23T10:25:44;3.00;99.90
12268;DHT22;6196;48.398;11.736;2023-01-23T10:28:34;3.00;99.90
12268;DHT22;6196;48.398;11.736;2023-01-23T10:31:14;2.80;99.90
12268;DHT22;6196;48.398;11.736;2023-01-23T10:34:06;2.90;99.90
12268;DHT22;6196;48.398;11.736;2023-01-23T10:37:02;2.90;99.90
12268;DHT22;6196;48.398;11.736;2023-01-23T10:39:48;2.70;99.90
12268;DHT22;6196;48.398;11.736;2023-01-23T10:42:21;2.50;99.90
12268;DHT22;6196;48.398;11.736;2023-01-23T10:44:49;2.40;99.90
12268;DHT22;6196;48.398;11.736;2023-01-23T10:47:45;2.40;99.90
12268;DHT22;6196;48.398;11.736;2023-01-23T10:50:38;2.40;99.90
12268;DHT22;6196;48.398;11.736;2023-01-23T10:53:10;2.50;99.90
12268;DHT22;6196;48.398;11.736;2023-01-23T10:55:45;2.50;99.90
12268;DHT22;6196;48.398;11.736;2023-01-23T11:01:17;2.60;99.90
12268;DHT22;6196;48.398;11.736;2023-01-23T11:03:52;2.50;99.90
12268;DHT22;6196;48.398;11.736;2023-01-23T11:06:21;2.50;99.90
12268;DHT22;6196;48.398;11.736;2023-01-23T11:09:00;2.70;99.90
12268;DHT22;6196;48.398;11.736;2023-01-23T11:11:29;2.90;99.90
12268;DHT22;6196;48.398;11.736;2023-01-23T11:14:26;2.90;99.90
12268;DHT22;6196;48.398;11.736;2023-01-23T11:17:22;3.10;99.90
12268;DHT22;6196;48.398;11.736;2023-01-23T11:19:52;3.00;99.90
12268;DHT22;6196;48.398;11.736;2023-01-23T11:22:27;3.10;99.90
12268;DHT22;6196;48.398;11.736;2023-01-23T11:24:57;3.20;99.90
12268;DHT22;6196;48.398;11.736;2023-01-23T11:27:28;3.20;99.90
12268;DHT22;6196;48.398;11.736;2023-01-23T11:32:55;3.20;99.90
12268;DHT22;6196;48.398;11.736;2023-01-23T11:38:41;3.20;99.90
12268;DHT22;6196;48.398;11.736;2023-01-23T11:41:19;3.40;99.90
12268;DHT22;6196;48.398;11.736;2023-01-23T11:43:49;3.40;99.90
12268;DHT22;6196;48.398;11.736;2023-01-23T11:52:10;3.50;99.90
12268;DHT22;6196;48.398;11.736;2023-01-23T11:58:08;3.40;99.90
12268;DHT22;6196;48.398;11.736;2023-01-23T12:03:48;3.40;99.90
12268;DHT22;6196;48.398;11.736;2023-01-23T12:09:19;3.50;99.90
12268;DHT22;6196;48.398;11.736;2023-01-23T12:15:14;3.40;99.90
12268;DHT22;6196;48.398;11.736;2023-01-23T12:23:57;3.60;99.90
12268;DHT22;6196;48.398;11.736;2023-01-23T12:26:30;3.70;99.90
12268;DHT22;6196;48.398;11.736;2023-01-23T12:29:26;3.60;99.90
12268;DHT22;6196;48.398;11.736;2023-01-23T12:38:07;3.60;99.90
12268;DHT22;6196;48.398;11.736;2023-01-23T12:40:54;3.60;99.90
12268;DHT22;6196;48.398;11.736;2023-01-23T12:47:01;3.50;99.90
12268;DHT22;6196;48.398;11.736;2023-01-23T12:49:31;3.40;99.90
12268;DHT22;6196;48.398;11.736;2023-01-23T12:52:25;3.50;99.90
12268;DHT22;6196;48.398;11.736;2023-01-23T12:55:18;3.60;99.90
12268;DHT22;6196;48.398;11.736;2023-01-23T12:57:50;3.60;99.90
12268;DHT22;6196;48.398;11.736;2023-01-23T13:00:44;3.60;99.90
12268;DHT22;6196;48.398;11.736;2023-01-23T13:06:23;3.80;99.90
12268;DHT22;6196;48.398;11.736;2023-01-23T13:12:23;3.90;99.90
12268;DHT22;6196;48.398;11.736;2023-01-23T13:14:53;4.20;99.90
12268;DHT22;6196;48.398;11.736;2023-01-23T13:17:46;4.30;99.90
12268;DHT22;6196;48.398;11.736;2023-01-23T13:23:41;4.20;99.90
12268;DHT22;6196;48.398;11.736;2023-01-23T13:31:39;3.80;99.90
12268;DHT22;6196;48.398;11.736;2023-01-23T13:36:47;3.50;99.90
12268;DHT22;6196;48.398;11.736;2023-01-23T13:39:25;3.60;99.90
12268;DHT22;6196;48.398;11.736;2023-01-23T13:51:21;3.40;99.90
12268;DHT22;6196;48.398;11.736;2023-01-23T13:54:02;3.40;99.90
12268;DHT22;6196;48.398;11.736;2023-01-23T13:57:04;3.40;99.90
12268;DHT22;6196;48.398;11.736;2023-01-23T13:59:47;3.40;99.90
12268;DHT22;6196;48.398;11.736;2023-01-23T14:02:38;3.30;99.90
12268;DHT22;6196;48.398;11.736;2023-01-23T14:05:40;3.30;99.90
12268;DHT22;6196;48.398;11.736;2023-01-23T14:08:22;3.30;99.90
12268;DHT22;6196;48.398;11.736;2023-01-23T14:11:15;3.30;99.90
12268;DHT22;6196;48.398;11.736;2023-01-23T14:14:00;3.30;99.90
12268;DHT22;6196;48.398;11.736;2023-01-23T14:17:00;3.10;99.90
12268;DHT22;6196;48.398;11.736;2023-01-23T14:19:59;3.10;99.90
12268;DHT22;6196;48.398;11.736;2023-01-23T14:22:42;3.10;99.90
12268;DHT22;6196;48.398;11.736;2023-01-23T14:25:16;3.20;99.90
12268;DHT22;6196;48.398;11.736;2023-01-23T14:27:44;3.20;99.90
12268;DHT22;6196;48.398;11.736;2023-01-23T14:30:23;3.20;99.90
12268;DHT22;6196;48.398;11.736;2023-01-23T14:32:52;3.10;99.90
12268;DHT22;6196;48.398;11.736;2023-01-23T14:35:31;3.10;99.90
12268;DHT22;6196;48.398;11.736;2023-01-23T14:38:00;3.10;99.90
12268;DHT22;6196;48.398;11.736;2023-01-23T14:40:30;3.10;99.90
12268;DHT22;6196;48.398;11.736;2023-01-23T14:43:23;3.00;99.90
12268;DHT22;6196;48.398;11.736;2023-01-23T14:46:17;3.00;99.90
12268;DHT22;6196;48.398;11.736;2023-01-23T14:48:52;3.10;99.90
12268;DHT22;6196;48.398;11.736;2023-01-23T14:51:22;3.10;99.90
12268;DHT22;6196;48.398;11.736;2023-01-23T14:54:05;3.00;99.90
12268;DHT22;6196;48.398;11.736;2023-01-23T14:56:48;3.00;99.90
12268;DHT22;6196;48.398;11.736;2023-01-23T14:59:32;3.00;99.90
12268;DHT22;6196;48.398;11.736;2023-01-23T15:02:18;2.90;99.90
12268;DHT22;6196;48.398;11.736;2023-01-23T15:05:20;2.90;99.90
12268;DHT22;6196;48.398;11.736;2023-01-23T15:08:02;2.90;99.90
12268;DHT22;6196;48.398;11.736;2023-01-23T15:13:06;3.00;99.90
12268;DHT22;6196;48.398;11.736;2023-01-23T15:15:37;2.90;99.90
12268;DHT22;6196;48.398;11.736;2023-01-23T15:18:21;2.90;99.90
12268;DHT22;6196;48.398;11.736;2023-01-23T15:21:01;2.90;99.90
12268;DHT22;6196;48.398;11.736;2023-01-23T15:23:36;2.80;99.90
12268;DHT22;6196;48.398;11.736;2023-01-23T15:28:51;2.80;99.90
12268;DHT22;6196;48.398;11.736;2023-01-23T15:31:26;2.80;99.90
12268;DHT22;6196;48.398;11.736;2023-01-23T15:33:55;2.90;99.90
12268;DHT22;6196;48.398;11.736;2023-01-23T15:36:35;2.90;99.90
12268;DHT22;6196;48.398;11.736;2023-01-23T15:39:02;3.00;99.90
12268;DHT22;6196;48.398;11.736;2023-01-23T15:41:44;2.90;99.90
12268;DHT22;6196;48.398;11.736;2023-01-23T15:44:21;2.90;99.90
12268;DHT22;6196;48.398;11.736;2023-01-23T15:46:48;2.90;99.90
12268;DHT22;6196;48.398;11.736;2023-01-23T15:49:16;3.00;99.90
12268;DHT22;6196;48.398;11.736;2023-01-23T15:51:54;3.00;99.90
12268;DHT22;6196;48.398;11.736;2023-01-23T15:54:34;2.90;99.90
12268;DHT22;6196;48.398;11.736;2023-01-23T15:57:02;2.90;99.90
12268;DHT22;6196;48.398;11.736;2023-01-23T15:59:35;2.80;99.90
12268;DHT22;6196;48.398;11.736;2023-01-23T16:02:03;2.80;99.90
12268;DHT22;6196;48.398;11.736;2023-01-23T16:04:33;2.80;99.90
12268;DHT22;6196;48.398;11.736;2023-01-23T16:07:05;2.80;99.90
12268;DHT22;6196;48.398;11.736;2023-01-23T16:09:35;2.70;99.90
12268;DHT22;6196;48.398;11.736;2023-01-23T16:12:03;2.70;99.90
12268;DHT22;6196;48.398;11.736;2023-01-23T16:14:31;2.70;99.90
12268;DHT22;6196;48.398;11.736;2023-01-23T16:16:57;2.60;99.90
12268;DHT22;6196;48.398;11.736;2023-01-23T16:19:41;2.60;99.90
12268;DHT22;6196;48.398;11.736;2023-01-23T16:22:20;2.60;99.90
12268;DHT22;6196;48.398;11.736;2023-01-23T16:24:51;2.60;99.90
12268;DHT22;6196;48.398;11.736;2023-01-23T16:27:19;2.60;99.90
12268;DHT22;6196;48.398;11.736;2023-01-23T16:29:54;2.60;99.90
12268;DHT22;6196;48.398;11.736;2023-01-23T16:32:21;2.60;99.90
12268;DHT22;6196;48.398;11.736;2023-01-23T16:34:48;2.60;99.90
12268;DHT22;6196;48.398;11.736;2023-01-23T16:37:16;2.50;99.90
12268;DHT22;6196;48.398;11.736;2023-01-23T16:39:45;2.50;99.90
12268;DHT22;6196;48.398;11.736;2023-01-23T16:42:21;2.50;99.90
12268;DHT22;6196;48.398;11.736;2023-01-23T16:44:50;2.50;99.90
12268;DHT22;6196;48.398;11.736;2023-01-23T16:47:17;2.60;99.90
12268;DHT22;6196;48.398;11.736;2023-01-23T16:49:44;2.50;99.90
12268;DHT22;6196;48.398;11.736;2023-01-23T16:52:22;2.50;99.90
12268;DHT22;6196;48.398;11.736;2023-01-23T16:54:51;2.50;99.90
12268;DHT22;6196;48.398;11.736;2023-01-23T16:57:19;2.50;99.90
12268;DHT22;6196;48.398;11.736;2023-01-23T16:59:46;2.40;99.90
12268;DHT22;6196;48.398;11.736;2023-01-23T17:02:21;2.50;99.90
12268;DHT22;6196;48.398;11.736;2023-01-23T17:04:51;2.60;99.90
12268;DHT22;6196;48.398;11.736;2023-01-23T17:07:18;2.50;99.90
12268;DHT22;6196;48.398;11.736;2023-01-23T17:09:46;2.40;99.90
12268;DHT22;6196;48.398;11.736;2023-01-23T17:12:23;2.40;99.90
12268;DHT22;6196;48.398;11.736;2023-01-23T17:14:53;2.50;99.90
12268;DHT22;6196;48.398;11.736;2023-01-23T17:17:33;2.40;99.90
12268;DHT22;6196;48.398;11.736;2023-01-23T17:20:02;2.40;99.90
12268;DHT22;6196;48.398;11.736;2023-01-23T17:22:35;2.40;99.90
12268;DHT22;6196;48.398;11.736;2023-01-23T17:25:15;2.40;99.90
12268;DHT22;6196;48.398;11.736;2023-01-23T17:27:44;2.40;99.90
12268;DHT22;6196;48.398;11.736;2023-01-23T17:30:24;2.40;99.90
12268;DHT22;6196;48.398;11.736;2023-01-23T17:32:53;2.40;99.90
12268;DHT22;6196;48.398;11.736;2023-01-23T17:35:45;2.40;99.90
12268;DHT22;6196;48.398;11.736;2023-01-23T17:40:47;2.20;99.90
12268;DHT22;6196;48.398;11.736;2023-01-23T17:43:16;2.30;99.90
12268;DHT22;6196;48.398;11.736;2023-01-23T17:45:46;2.30;99.90
12268;DHT22;6196;48.398;11.736;2023-01-23T17:48:25;2.20;99.90
12268;DHT22;6196;48.398;11.736;2023-01-23T17:50:54;2.10;99.90
12268;DHT22;6196;48.398;11.736;2023-01-23T17:53:21;2.20;99.90
12268;DHT22;6196;48.398;11.736;2023-01-23T17:55:49;2.20;99.90